Time;durP1;ratioP1;P1;durP2;ratioP2;P2;SDS_P1;SDS_P2;PMS_P1;PMS_P2;Temp;Humidity;BMP_temperature;BMP_pressure;BME280_temperature;BME280_humidity;BME280_pressure;Samples;Min_cycle;Max_cycle;Signal;HPM_P1;HPM_P2
2022/05/20 00:00:52;;;;;;;5.57;3.57;;;;;;;15.90;100.00;97623.16;4952376;28;20237;-54
2022/05/20 00:03:21;;;;;;;4.50;3.23;;;;;;;15.85;100.00;97618.44;4971408;28;20201;-57
2022/05/20 00:05:49;;;;;;;4.90;2.87;;;;;;;15.71;100.00;97614.94;4964443;28;20218;-53
2022/05/20 00:08:17;;;;;;;4.73;3.37;;;;;;;15.66;100.00;97624.59;4956005;28;20678;-58
2022/05/20 00:10:47;;;;;;;4.17;3.47;;;;;;;15.58;100.00;97620.31;4964397;28;20901;-57
2022/05/20 00:13:15;;;;;;;3.73;3.43;;;;;;;15.58;100.00;97625.63;4935702;28;20217;-59
2022/05/20 00:15:43;;;;;;;3.83;3.30;;;;;;;15.47;100.00;97625.19;4963398;28;20228;-59
2022/05/20 00:18:11;;;;;;;3.90;3.50;;;;;;;15.48;100.00;97612.69;4954643;28;20922;-56
2022/05/20 00:20:39;;;;;;;4.00;3.70;;;;;;;15.45;100.00;97613.09;4970547;28;20786;-56
2022/05/20 00:23:08;;;;;;;3.60;3.40;;;;;;;15.38;100.00;97622.97;4949361;28;20210;-59
2022/05/20 00:25:47;;;;;;;5.60;3.50;;;;;;;15.38;100.00;97614.94;4968196;28;20316;-55
2022/05/20 00:28:20;;;;;;;3.90;3.60;;;;;;;15.44;100.00;97620.28;4927114;28;20210;-53
2022/05/20 00:30:51;;;;;;;4.27;3.90;;;;;;;15.33;100.00;97619.03;4968470;28;20993;-54
2022/05/20 00:33:19;;;;;;;4.80;3.57;;;;;;;15.25;100.00;97626.44;4951828;28;20210;-56
2022/05/20 00:35:47;;;;;;;3.60;3.40;;;;;;;15.15;100.00;97630.31;4970327;28;20315;-59
2022/05/20 00:38:16;;;;;;;5.27;3.87;;;;;;;15.14;100.00;97635.84;4949486;28;20218;-55
2022/05/20 00:40:45;;;;;;;4.23;3.93;;;;;;;15.17;100.00;97635.44;4967587;28;20230;-56
2022/05/20 00:43:22;;;;;;;4.17;3.83;;;;;;;15.14;100.00;97634.00;4925746;28;20210;-57
2022/05/20 00:45:50;;;;;;;6.23;3.53;;;;;;;15.13;100.00;97647.56;4963596;28;20221;-58
2022/05/20 00:48:19;;;;;;;4.03;3.73;;;;;;;15.14;100.00;97643.84;4955309;28;20312;-57
2022/05/20 00:50:51;;;;;;;6.97;4.07;;;;;;;15.04;100.00;97636.22;4972875;28;20870;-54
2022/05/20 00:53:21;;;;;;;4.60;4.20;;;;;;;15.05;100.00;97643.22;4969596;28;20909;-57
2022/05/20 00:55:49;;;;;;;4.17;3.77;;;;;;;15.12;100.00;97629.88;4960045;28;20230;-58
2022/05/20 00:58:20;;;;;;;4.63;4.20;;;;;;;15.09;100.00;97632.97;4934124;28;20986;-53
2022/05/20 01:00:51;;;;;;;4.63;4.20;;;;;;;15.00;100.00;97627.81;4970469;28;20309;-56
2022/05/20 01:03:24;;;;;;;4.33;4.03;;;;;;;14.96;100.00;97634.56;4950895;28;20214;-59
2022/05/20 01:05:53;;;;;;;4.70;4.23;;;;;;;14.88;100.00;97632.91;4970313;28;20228;-57
2022/05/20 01:08:27;;;;;;;5.00;4.60;;;;;;;14.95;100.00;97640.91;4967099;28;20223;-56
2022/05/20 01:10:55;;;;;;;4.13;3.83;;;;;;;15.03;100.00;97630.09;4953134;28;20208;-56
2022/05/20 01:13:44;;;;;;;4.37;4.07;;;;;;;15.08;100.00;97628.66;4916637;28;20216;-57
2022/05/20 01:16:13;;;;;;;4.80;4.50;;;;;;;14.92;100.00;97625.31;4966811;28;20225;-52
2022/05/20 01:18:43;;;;;;;4.60;3.67;;;;;;;14.81;100.00;97631.25;4948157;28;20289;-54
2022/05/20 01:21:12;;;;;;;4.07;3.80;;;;;;;14.65;100.00;97635.88;4961811;28;20202;-55
2022/05/20 01:23:41;;;;;;;4.70;4.30;;;;;;;14.59;100.00;97636.69;4968508;28;20805;-59
2022/05/20 01:26:10;;;;;;;4.60;4.27;;;;;;;14.56;100.00;97639.72;4948166;28;20528;-53
2022/05/20 01:28:39;;;;;;;5.00;4.43;;;;;;;14.57;100.00;97638.69;4948798;28;20239;-59
2022/05/20 01:31:12;;;;;;;6.33;4.53;;;;;;;14.49;100.00;97647.72;4957622;28;20218;-52
2022/05/20 01:33:42;;;;;;;4.80;4.50;;;;;;;14.47;100.00;97661.22;4955969;28;20210;-60
2022/05/20 01:36:14;;;;;;;5.60;4.70;;;;;;;14.40;100.00;97659.56;4958859;28;20230;-56
2022/05/20 01:38:43;;;;;;;7.17;4.80;;;;;;;14.35;100.00;97653.97;4968792;28;20919;-59
2022/05/20 01:41:14;;;;;;;6.00;5.50;;;;;;;14.35;100.00;97660.13;4947875;28;20332;-57
2022/05/20 01:43:50;;;;;;;4.93;4.53;;;;;;;14.32;100.00;97671.19;4964933;28;20198;-58
2022/05/20 01:46:32;;;;;;;6.03;5.33;;;;;;;14.21;100.00;97663.75;4936238;28;20377;-57
2022/05/20 01:49:10;;;;;;;5.80;5.40;;;;;;;14.17;100.00;97666.78;4927853;28;20210;-58
2022/05/20 01:51:46;;;;;;;6.80;5.50;;;;;;;14.15;100.00;97660.03;4948981;28;20674;-58
2022/05/20 01:54:22;;;;;;;6.67;6.13;;;;;;;14.10;100.00;97657.13;4962253;28;20293;-54
2022/05/20 01:56:52;;;;;;;5.93;5.53;;;;;;;14.10;100.00;97659.78;4947368;28;20235;-57
2022/05/20 01:59:23;;;;;;;6.50;6.00;;;;;;;14.04;100.00;97661.38;4962780;28;20281;-56
2022/05/20 02:01:56;;;;;;;8.57;7.23;;;;;;;13.98;100.00;97664.81;4934868;28;20209;-57
2022/05/20 02:04:28;;;;;;;8.70;7.07;;;;;;;13.97;100.00;97665.84;4964413;28;20221;-54
2022/05/20 02:07:01;;;;;;;8.00;7.40;;;;;;;13.98;100.00;97664.81;4931823;28;20324;-58
2022/05/20 02:09:35;;;;;;;7.00;6.50;;;;;;;13.91;100.00;97662.09;4968167;28;20213;-56
2022/05/20 02:12:03;;;;;;;8.13;7.43;;;;;;;13.88;100.00;97660.66;4956067;28;20263;-59
2022/05/20 02:14:42;;;;;;;7.57;7.07;;;;;;;13.88;100.00;97654.50;4966492;28;20240;-53
2022/05/20 02:17:16;;;;;;;7.73;6.97;;;;;;;13.83;100.00;97657.75;4927244;28;20251;-56
2022/05/20 02:19:48;;;;;;;8.13;7.23;;;;;;;13.79;100.00;97648.47;4965343;28;20234;-56
2022/05/20 02:22:19;;;;;;;7.03;6.53;;;;;;;13.81;100.00;97645.63;4908844;28;20217;-53
2022/05/20 02:24:49;;;;;;;8.70;7.87;;;;;;;13.79;100.00;97645.81;4966396;28;20289;-56
2022/05/20 02:27:20;;;;;;;7.90;7.20;;;;;;;13.78;100.00;97638.03;4947687;28;24066;-55
2022/05/20 02:29:52;;;;;;;9.67;8.87;;;;;;;13.76;100.00;97656.84;4968492;28;20712;-57
2022/05/20 02:32:23;;;;;;;7.73;7.13;;;;;;;13.73;100.00;97651.91;4930475;28;20883;-56
2022/05/20 02:34:52;;;;;;;9.10;7.80;;;;;;;13.73;100.00;97650.09;4970826;28;20781;-58
2022/05/20 02:37:26;;;;;;;7.73;7.03;;;;;;;13.74;100.00;97658.91;4929271;28;20674;-58
2022/05/20 02:39:56;;;;;;;7.40;6.80;;;;;;;13.70;100.00;97660.28;4967309;28;20245;-58
2022/05/20 02:42:26;;;;;;;8.47;7.67;;;;;;;13.72;100.00;97666.25;4946790;28;21139;-56
2022/05/20 02:44:55;;;;;;;8.40;7.70;;;;;;;13.68;100.00;97668.50;4963210;28;20234;-55
2022/05/20 02:47:24;;;;;;;8.03;7.43;;;;;;;13.66;100.00;97659.03;4927909;28;20606;-51
2022/05/20 02:49:52;;;;;;;7.47;6.77;;;;;;;13.67;100.00;97660.69;4967997;28;20726;-55
2022/05/20 02:52:20;;;;;;;10.70;8.03;;;;;;;13.64;100.00;97661.91;4964124;28;20320;-52
2022/05/20 02:54:48;;;;;;;9.00;8.10;;;;;;;13.65;100.00;97670.69;4959445;28;20229;-53
2022/05/20 02:57:17;;;;;;;10.47;9.37;;;;;;;13.65;100.00;97668.03;4948797;28;20320;-58
2022/05/20 03:05:18;;;;;;;11.00;7.10;;;;;;;13.60;100.00;97674.78;4961724;28;20222;-55
2022/05/20 03:07:46;;;;;;;8.70;8.00;;;;;;;13.56;100.00;97670.84;4965291;28;20233;-56
2022/05/20 03:10:15;;;;;;;8.07;7.40;;;;;;;13.55;100.00;97674.53;4946311;28;20297;-56
2022/05/20 03:12:44;;;;;;;8.07;7.33;;;;;;;13.59;100.00;97672.28;4949230;28;20610;-59
2022/05/20 03:15:14;;;;;;;7.93;7.23;;;;;;;13.54;100.00;97680.03;4944581;28;20288;-54
2022/05/20 03:17:43;;;;;;;8.53;7.67;;;;;;;13.53;100.00;97683.69;4965206;28;20977;-52
2022/05/20 03:20:12;;;;;;;8.43;7.83;;;;;;;13.52;100.00;97680.22;4920641;28;20221;-56
2022/05/20 03:22:40;;;;;;;8.17;7.57;;;;;;;13.60;100.00;97685.41;4939260;28;20642;-58
2022/05/20 03:25:10;;;;;;;11.13;8.60;;;;;;;13.56;100.00;97678.84;4945214;28;20261;-53
2022/05/20 03:27:38;;;;;;;8.70;8.00;;;;;;;13.54;100.00;97672.03;4967382;28;20292;-54
2022/05/20 03:30:10;;;;;;;8.20;7.57;;;;;;;13.55;100.00;97682.50;4940769;28;20300;-57
2022/05/20 03:32:39;;;;;;;10.27;8.23;;;;;;;13.50;100.00;97682.25;4967124;28;20834;-58
2022/05/20 03:35:08;;;;;;;8.57;7.77;;;;;;;13.50;100.00;97678.75;4934920;28;20706;-55
2022/05/20 03:37:36;;;;;;;8.20;7.50;;;;;;;13.47;100.00;97679.97;4962368;28;20293;-57
2022/05/20 03:40:05;;;;;;;8.60;7.70;;;;;;;13.47;100.00;97679.97;4945022;28;20658;-54
2022/05/20 03:42:33;;;;;;;8.60;7.90;;;;;;;13.44;100.00;97669.69;4964431;28;20266;-59
2022/05/20 03:45:02;;;;;;;7.63;7.13;;;;;;;13.46;100.00;97670.34;4959408;28;20230;-58
2022/05/20 03:47:32;;;;;;;8.10;7.40;;;;;;;13.44;100.00;97669.69;4948203;28;20213;-56
2022/05/20 03:50:01;;;;;;;7.10;6.23;;;;;;;13.44;100.00;97677.66;4916589;28;21134;-55
2022/05/20 03:52:29;;;;;;;8.23;7.23;;;;;;;13.51;100.00;97673.25;4964690;28;20741;-58
2022/05/20 03:54:58;;;;;;;7.73;7.00;;;;;;;13.51;100.00;97664.44;4963222;28;20321;-57
2022/05/20 03:57:26;;;;;;;6.77;6.27;;;;;;;13.58;100.00;97675.97;4960868;28;20214;-59
2022/05/20 03:59:55;;;;;;;8.13;6.57;;;;;;;13.60;100.00;97671.28;4963168;28;20646;-54
2022/05/20 04:02:22;;;;;;;7.57;6.90;;;;;;;13.66;100.00;97672.34;4948434;28;20218;-57
2022/05/20 04:04:53;;;;;;;6.73;6.20;;;;;;;13.77;100.00;97676.34;4964426;28;20835;-57
2022/05/20 04:07:23;;;;;;;7.53;6.93;;;;;;;13.88;100.00;97673.16;4917363;28;20731;-57
2022/05/20 04:09:51;;;;;;;6.90;6.40;;;;;;;13.97;100.00;97677.31;4962787;28;20435;-53
2022/05/20 04:12:27;;;;;;;6.80;6.30;;;;;;;14.10;100.00;97673.91;4967010;28;20264;-52
2022/05/20 04:14:56;;;;;;;7.47;6.87;;;;;;;14.23;100.00;97683.84;4961214;28;20670;-57
2022/05/20 04:17:25;;;;;;;8.03;7.30;;;;;;;14.41;100.00;97687.88;4949332;28;20243;-58
2022/05/20 04:19:55;;;;;;;7.63;7.00;;;;;;;14.50;100.00;97689.34;4964015;28;20259;-55
2022/05/20 04:22:26;;;;;;;7.73;7.03;;;;;;;14.64;100.00;97682.25;4872807;28;20269;-59
2022/05/20 04:24:54;;;;;;;7.47;6.87;;;;;;;14.77;100.00;97676.16;4971872;28;20225;-57
2022/05/20 04:27:22;;;;;;;7.77;7.17;;;;;;;14.96;100.00;97677.25;4965487;28;20736;-56
2022/05/20 04:29:51;;;;;;;7.60;6.90;;;;;;;15.08;100.00;97668.69;4942131;28;20861;-56
2022/05/20 04:32:19;;;;;;;7.40;6.80;;;;;;;15.28;100.00;97674.88;4947972;28;20213;-58
2022/05/20 04:34:47;;;;;;;7.03;6.53;;;;;;;15.39;100.00;97660.13;4966913;28;20301;-59
2022/05/20 04:37:17;;;;;;;6.93;6.43;;;;;;;15.56;100.00;97654.41;4920461;28;20220;-58
2022/05/20 04:39:45;;;;;;;6.60;6.10;;;;;;;15.68;100.00;97651.91;4972432;28;20225;-56
2022/05/20 04:47:42;;;;;;;6.93;6.23;;;;;;;16.06;100.00;97649.47;4945240;28;20222;-53
2022/05/20 04:50:10;;;;;;;6.00;5.60;;;;;;;16.23;100.00;97642.88;4970044;28;20278;-58
2022/05/20 04:52:40;;;;;;;6.17;5.63;;;;;;;16.33;100.00;97644.09;4926192;28;20222;-53
2022/05/20 04:55:08;;;;;;;6.30;5.70;;;;;;;16.49;100.00;97645.47;4968359;28;20312;-59
2022/05/20 04:57:38;;;;;;;6.73;5.17;;;;;;;16.63;100.00;97642.75;4967296;28;20287;-57
2022/05/20 05:00:10;;;;;;;5.90;5.50;;;;;;;16.73;100.00;97645.78;4964699;28;20225;-54
2022/05/20 05:02:39;;;;;;;5.73;5.33;;;;;;;16.83;100.00;97644.50;4965330;28;20233;-54
2022/05/20 05:05:09;;;;;;;4.90;4.60;;;;;;;16.90;100.00;97638.09;4946396;28;20222;-59
2022/05/20 05:07:38;;;;;;;5.43;4.50;;;;;;;16.99;100.00;97635.19;4921752;28;21241;-56
2022/05/20 05:10:09;;;;;;;6.20;4.73;;;;;;;17.04;100.00;97633.53;4968905;28;20248;-53
2022/05/20 05:12:37;;;;;;;5.77;5.20;;;;;;;17.16;100.00;97639.03;4963799;28;20316;-54
2022/05/20 05:15:07;;;;;;;5.20;4.80;;;;;;;17.42;100.00;97628.34;4968705;28;21140;-56
2022/05/20 05:20:22;;;;;;;5.20;4.87;;;;;;;17.75;100.00;97632.63;4951722;28;20218;-57
2022/05/20 05:22:50;;;;;;;7.43;5.20;;;;;;;17.85;100.00;97632.13;4969242;28;21626;-54
2022/05/20 05:25:21;;;;;;;5.70;5.20;;;;;;;18.04;100.00;97635.69;4930819;28;20373;-58
2022/05/20 05:27:50;;;;;;;5.60;5.20;;;;;;;18.00;100.00;97650.56;4973084;28;20237;-56
2022/05/20 05:30:19;;;;;;;6.07;4.90;;;;;;;18.05;100.00;97642.69;4970106;28;20297;-58
2022/05/20 05:32:47;;;;;;;5.57;5.13;;;;;;;18.16;100.00;97644.66;4966213;28;20292;-57
2022/05/20 05:35:17;;;;;;;4.77;4.47;;;;;;;18.39;100.00;97647.72;4954548;28;20695;-57
2022/05/20 05:37:45;;;;;;;5.23;4.93;;;;;;;18.46;100.00;97648.47;4967846;28;20321;-53
2022/05/20 05:40:15;;;;;;;5.50;5.10;;;;;;;18.49;100.00;97651.53;4934317;28;20225;-58
2022/05/20 05:42:45;;;;;;;5.50;5.10;;;;;;;18.73;100.00;97659.69;4965837;28;20210;-57
2022/05/20 05:45:17;;;;;;;5.47;4.57;;;;;;;18.93;100.00;97648.72;4967400;28;20710;-57
2022/05/20 05:47:48;;;;;;;5.73;4.60;;;;;;;19.13;100.00;97647.66;4967042;28;20305;-55
2022/05/20 05:50:16;;;;;;;5.60;5.07;;;;;;;18.95;100.00;97635.91;4962760;28;20202;-57
2022/05/20 05:52:45;;;;;;;4.67;4.27;;;;;;;18.99;100.00;97640.84;4963885;28;20905;-53
2022/05/20 05:55:13;;;;;;;4.60;4.27;;;;;;;19.09;100.00;97635.75;4956042;28;20245;-58
2022/05/20 05:57:43;;;;;;;5.13;4.83;;;;;;;18.97;100.00;97646.41;4954700;28;20273;-55
2022/05/20 06:00:13;;;;;;;5.67;5.17;;;;;;;18.79;100.00;97645.41;4966478;28;20333;-57
2022/05/20 06:02:41;;;;;;;8.23;7.40;;;;;;;18.87;100.00;97648.81;4968777;28;20430;-57
2022/05/20 06:05:10;;;;;;;6.50;6.00;;;;;;;18.66;100.00;97643.69;4963590;28;20351;-57
2022/05/20 06:07:38;;;;;;;5.13;4.83;;;;;;;18.45;100.00;97652.19;4949784;28;20213;-54
2022/05/20 06:10:07;;;;;;;5.23;4.83;;;;;;;18.63;100.00;97649.50;4970972;28;20252;-57
2022/05/20 06:12:36;;;;;;;6.10;5.60;;;;;;;18.64;100.00;97647.63;4941340;28;20221;-53
2022/05/20 06:15:08;;;;;;;6.20;5.70;;;;;;;18.43;100.00;97652.44;4965228;28;20614;-56
2022/05/20 06:17:36;;;;;;;9.20;5.30;;;;;;;18.31;100.00;97643.47;4963489;28;20497;-57
2022/05/20 06:20:06;;;;;;;6.93;5.07;;;;;;;18.18;100.00;97642.56;4965638;28;20233;-51
2022/05/20 06:22:34;;;;;;;5.77;5.37;;;;;;;18.14;100.00;97640.53;4952495;28;20818;-56
2022/05/20 06:25:03;;;;;;;5.73;5.33;;;;;;;18.23;100.00;97636.53;4965350;28;20309;-53
2022/05/20 06:27:33;;;;;;;5.30;4.90;;;;;;;18.20;100.00;97635.13;4922572;28;20475;-54
2022/05/20 06:30:02;;;;;;;5.10;4.57;;;;;;;18.15;100.00;97628.75;4972782;28;20233;-54
2022/05/20 06:32:32;;;;;;;5.23;4.93;;;;;;;18.42;100.00;97639.22;4960883;28;20813;-56
2022/05/20 06:40:36;;;;;;;8.27;6.37;;;;;;;19.03;100.00;97624.03;4962799;28;20406;-56
2022/05/20 06:43:05;;;;;;;6.50;5.40;;;;;;;19.10;100.00;97621.28;4927886;28;20413;-53
2022/05/20 06:45:35;;;;;;;10.33;8.63;;;;;;;19.11;100.00;97627.44;4968499;28;20226;-55
2022/05/20 06:48:25;;;;;;;7.93;7.07;;;;;;;19.31;100.00;97621.78;4957850;28;20213;-58
2022/05/20 06:50:53;;;;;;;8.03;5.90;;;;;;;19.47;100.00;97617.63;4966094;28;20236;-55
2022/05/20 06:53:21;;;;;;;6.40;5.90;;;;;;;19.59;100.00;97617.63;4957139;28;20653;-59
2022/05/20 06:55:49;;;;;;;7.37;6.77;;;;;;;19.62;100.00;97615.31;4967779;28;20233;-56
2022/05/20 06:58:18;;;;;;;6.13;5.73;;;;;;;19.62;100.00;97612.63;4940619;28;20280;-59
2022/05/20 07:00:46;;;;;;;6.47;5.97;;;;;;;19.68;100.00;97616.25;4958479;28;20257;-55
2022/05/20 07:03:14;;;;;;;6.67;6.07;;;;;;;19.71;100.00;97615.81;4967365;28;20288;-57
2022/05/20 07:05:44;;;;;;;6.53;6.00;;;;;;;19.72;100.00;97613.91;4962643;28;20309;-57
2022/05/20 07:08:12;;;;;;;9.53;5.90;;;;;;;19.84;100.00;97617.41;4971044;28;20289;-56
2022/05/20 07:10:41;;;;;;;6.80;6.17;;;;;;;19.94;100.00;97617.72;4950231;28;20238;-53
2022/05/20 07:13:29;;;;;;;10.00;9.00;;;;;;;19.94;100.00;97611.50;4922302;28;20982;-57
2022/05/20 07:15:58;;;;;;;7.07;6.47;;;;;;;20.00;100.00;97613.25;4968790;28;20229;-55
2022/05/20 07:18:27;;;;;;;7.90;7.30;;;;;;;19.98;100.00;97617.25;4967574;28;21030;-54
2022/05/20 07:20:57;;;;;;;7.33;6.63;;;;;;;19.99;100.00;97619.69;4965069;28;20265;-55
2022/05/20 07:23:28;;;;;;;6.70;6.30;;;;;;;20.08;100.00;97614.78;4965214;28;20233;-55
2022/05/20 07:25:56;;;;;;;6.80;6.37;;;;;;;20.33;100.00;97614.50;4952963;28;20333;-58
2022/05/20 07:28:25;;;;;;;7.13;6.57;;;;;;;20.34;100.00;97609.97;4964462;28;20209;-58
2022/05/20 07:30:53;;;;;;;9.47;7.20;;;;;;;20.39;100.00;97610.84;4927088;28;20228;-55
2022/05/20 07:33:21;;;;;;;6.90;6.40;;;;;;;20.19;100.00;97610.44;4960741;28;20242;-57
2022/05/20 07:35:50;;;;;;;6.97;5.97;;;;;;;20.31;100.00;97607.75;4966104;28;20300;-56
2022/05/20 07:38:19;;;;;;;6.37;6.00;;;;;;;20.56;100.00;97606.63;4965474;28;20214;-57
2022/05/20 07:40:48;;;;;;;6.20;5.77;;;;;;;20.73;100.00;97609.38;4951804;28;20945;-56
2022/05/20 07:43:16;;;;;;;9.40;8.60;;;;;;;21.11;100.00;97611.47;4964033;28;20241;-56
2022/05/20 07:45:44;;;;;;;7.83;5.90;;;;;;;21.10;100.00;97596.38;4926862;28;21043;-54
2022/05/20 07:48:12;;;;;;;9.80;7.70;;;;;;;21.32;100.00;97603.75;4965831;28;20768;-56
2022/05/20 07:50:45;;;;;;;5.40;5.00;;;;;;;21.57;100.00;97591.75;4965067;28;20518;-55
2022/05/20 07:53:21;;;;;;;5.77;5.27;;;;;;;21.40;100.00;97591.75;4967221;28;20575;-58
2022/05/20 07:55:54;;;;;;;5.33;4.73;;;;;;;21.53;100.00;97593.31;4968875;28;20256;-55
2022/05/20 07:58:25;;;;;;;5.53;5.10;;;;;;;21.57;100.00;97582.84;4958012;28;20225;-57
2022/05/20 08:01:13;;;;;;;6.00;5.13;;;;;;;21.62;100.00;97594.53;4930453;28;20634;-56
2022/05/20 08:06:27;;;;;;;9.00;8.10;;;;;;;21.65;100.00;97587.88;4967232;28;20601;-55
2022/05/20 08:08:56;;;;;;;7.23;5.53;;;;;;;21.46;100.00;97589.97;4971210;28;20202;-56
2022/05/20 08:11:25;;;;;;;6.07;5.67;;;;;;;21.69;100.00;97587.13;4959247;28;20285;-56
2022/05/20 08:13:53;;;;;;;6.03;5.63;;;;;;;21.63;100.00;97577.28;4970373;28;20228;-58
2022/05/20 08:16:22;;;;;;;6.23;5.67;;;;;;;21.83;100.00;97574.09;4930245;28;20234;-57
2022/05/20 08:18:52;;;;;;;6.20;5.60;;;;;;;21.94;100.00;97579.66;4971590;28;20198;-56
2022/05/20 08:21:20;;;;;;;5.57;5.17;;;;;;;21.73;100.00;97573.97;4971570;28;20619;-56
2022/05/20 08:23:48;;;;;;;8.27;6.17;;;;;;;21.81;100.00;97578.13;4973018;28;20237;-55
2022/05/20 08:26:18;;;;;;;10.27;7.93;;;;;;;21.89;100.00;97572.31;4967835;28;20610;-57
2022/05/20 08:28:48;;;;;;;10.33;6.10;;;;;;;22.15;100.00;97569.16;4961191;28;20206;-57
2022/05/20 08:31:17;;;;;;;6.50;6.00;;;;;;;22.20;100.00;97574.59;4952410;28;20256;-57
2022/05/20 08:33:46;;;;;;;6.70;6.20;;;;;;;22.32;100.00;97569.09;4963095;28;20236;-53
2022/05/20 08:36:14;;;;;;;6.43;5.83;;;;;;;22.52;100.00;97563.94;4971339;28;20339;-57
2022/05/20 08:38:42;;;;;;;6.43;5.43;;;;;;;22.65;100.00;97570.06;4968496;28;20683;-55
2022/05/20 08:41:13;;;;;;;7.60;5.10;;;;;;;22.59;100.00;97562.97;4976319;28;20217;-59
2022/05/20 08:43:42;;;;;;;7.67;5.73;;;;;;;22.66;100.00;97563.59;4962529;28;23020;-57
2022/05/20 08:46:12;;;;;;;6.53;6.03;;;;;;;22.80;100.00;97566.72;4963985;28;20296;-59
2022/05/20 08:48:42;;;;;;;6.03;5.57;;;;;;;22.84;100.00;97565.94;4952747;28;20297;-58
2022/05/20 08:51:10;;;;;;;6.17;5.63;;;;;;;22.91;100.00;97564.91;4972865;28;20288;-57
2022/05/20 08:53:44;;;;;;;6.47;5.97;;;;;;;22.94;100.00;97559.03;4968056;28;20513;-56
2022/05/20 08:56:14;;;;;;;6.03;5.63;;;;;;;22.92;100.00;97555.72;4972590;28;20261;-56
2022/05/20 08:58:50;;;;;;;6.33;5.70;;;;;;;22.75;100.00;97555.84;4957032;28;21114;-55
2022/05/20 09:01:28;;;;;;;10.13;8.33;;;;;;;22.90;100.00;97556.00;4966673;28;20284;-58
2022/05/20 09:03:57;;;;;;;6.93;6.37;;;;;;;23.13;100.00;97556.75;4934998;28;20300;-57
2022/05/20 09:06:26;;;;;;;6.03;5.53;;;;;;;23.31;100.00;97547.50;4969912;28;20356;-58
2022/05/20 09:09:08;;;;;;;6.10;5.50;;;;;;;23.46;100.00;97543.25;4970400;28;20316;-57
2022/05/20 09:11:37;;;;;;;6.63;5.37;;;;;;;23.27;100.00;97549.88;4972318;28;20528;-55
2022/05/20 09:17:03;;;;;;;6.50;5.90;;;;;;;23.53;100.00;97543.84;4970950;28;20797;-58
2022/05/20 09:19:31;;;;;;;5.97;5.47;;;;;;;23.60;100.00;97539.03;4925061;28;20749;-56
2022/05/20 09:22:02;;;;;;;5.73;5.37;;;;;;;23.53;100.00;97527.63;4969057;28;23008;-54
2022/05/20 09:24:38;;;;;;;6.67;6.17;;;;;;;23.75;100.00;97515.88;4965993;28;20383;-56
2022/05/20 09:27:08;;;;;;;6.43;5.80;;;;;;;23.74;100.00;97520.47;4968999;28;20256;-56
2022/05/20 09:29:39;;;;;;;6.77;6.10;;;;;;;23.88;100.00;97515.41;4967285;28;20284;-59
2022/05/20 09:32:25;;;;;;;7.00;6.27;;;;;;;23.86;100.00;97514.84;4958268;28;20249;-58
2022/05/20 09:35:02;;;;;;;6.33;5.73;;;;;;;23.83;100.00;97512.66;4926842;28;20241;-59
2022/05/20 09:37:33;;;;;;;7.27;6.60;;;;;;;23.93;100.00;97520.03;4967524;28;20637;-59
2022/05/20 09:40:21;;;;;;;6.83;6.33;;;;;;;23.94;100.00;97513.53;4965215;28;20215;-57
2022/05/20 09:43:12;;;;;;;6.87;6.17;;;;;;;24.03;100.00;97514.69;4967415;28;20328;-58
2022/05/20 09:45:44;;;;;;;7.17;6.57;;;;;;;23.97;100.00;97513.00;4953421;28;21089;-56
2022/05/20 09:48:16;;;;;;;7.43;6.83;;;;;;;24.06;100.00;97507.94;4969865;28;20242;-57
2022/05/20 09:50:58;;;;;;;6.37;5.97;;;;;;;24.07;100.00;97504.97;4928729;28;20303;-55
2022/05/20 09:53:35;;;;;;;10.97;6.67;;;;;;;24.16;100.00;97513.41;4967694;28;20441;-56
2022/05/20 09:56:23;;;;;;;9.20;6.30;;;;;;;24.14;100.00;97507.44;4970723;28;20228;-58
2022/05/20 09:59:14;;;;;;;6.73;6.20;;;;;;;24.14;100.00;97508.25;4968719;28;20210;-59
2022/05/20 10:01:45;;;;;;;6.83;6.33;;;;;;;24.24;100.00;97503.94;4958697;28;20316;-58
2022/05/20 10:04:20;;;;;;;6.80;6.10;;;;;;;24.45;100.00;97499.44;4950668;28;20745;-58
2022/05/20 10:06:53;;;;;;;7.07;6.37;;;;;;;24.64;100.00;97494.31;4964030;28;20228;-55
2022/05/20 10:09:29;;;;;;;9.03;6.27;;;;;;;24.78;100.00;97499.25;4963435;28;20742;-56
2022/05/20 10:12:00;;;;;;;5.77;5.37;;;;;;;24.93;100.00;97498.44;4967029;28;20265;-55
2022/05/20 10:14:34;;;;;;;6.40;5.97;;;;;;;25.13;100.00;97489.50;4963514;28;20284;-54
2022/05/20 10:17:06;;;;;;;6.43;6.03;;;;;;;25.12;100.00;97485.97;4971038;28;20209;-53
2022/05/20 10:19:43;;;;;;;6.13;5.73;;;;;;;25.05;100.00;97495.47;4910701;28;20553;-54
2022/05/20 10:22:20;;;;;;;9.97;6.37;;;;;;;24.92;100.00;97484.06;4970300;28;20221;-57
2022/05/20 10:24:55;;;;;;;5.80;5.17;;;;;;;25.07;100.00;97490.59;4963924;28;20652;-55
2022/05/20 10:27:28;;;;;;;5.83;5.43;;;;;;;25.21;100.00;97475.41;4964750;28;20289;-57
2022/05/20 10:32:50;;;;;;;6.97;6.37;;;;;;;25.36;100.00;97469.16;4964433;28;20233;-57
2022/05/20 10:35:23;;;;;;;6.93;6.43;;;;;;;25.33;100.00;97467.00;4917343;28;20244;-56
2022/05/20 10:38:33;;;;;;;6.83;6.23;;;;;;;25.44;100.00;97465.88;4970425;28;20216;-56
2022/05/20 10:41:07;;;;;;;6.97;6.33;;;;;;;25.59;100.00;97475.13;4894275;29;20347;-57
2022/05/20 10:49:48;;;;;;;6.53;5.90;;;;;;;25.77;100.00;97449.28;4837008;29;22591;-53
2022/05/20 10:52:26;;;;;;;7.07;6.47;;;;;;;25.99;100.00;97440.78;4892876;29;20243;-57
2022/05/20 10:55:10;;;;;;;6.87;6.27;;;;;;;25.92;100.00;97436.75;4886717;29;20315;-56
2022/05/20 10:58:21;;;;;;;6.30;5.57;;;;;;;26.10;100.00;97438.81;4885575;29;20573;-55
2022/05/20 11:00:51;;;;;;;6.40;5.63;;;;;;;26.19;100.00;97425.50;4890640;29;20819;-55
2022/05/20 11:03:43;;;;;;;5.90;5.40;;;;;;;26.49;100.00;97423.69;4891626;29;20658;-55
2022/05/20 11:07:07;;;;;;;5.67;5.23;;;;;;;26.94;100.00;97417.41;4853358;29;20238;-56
2022/05/20 11:09:45;;;;;;;6.00;5.60;;;;;;;27.27;100.00;97423.09;4812841;29;20228;-56
2022/05/20 11:12:20;;;;;;;6.10;5.50;;;;;;;27.22;100.00;97413.06;4817672;29;20270;-57
2022/05/20 11:15:09;;;;;;;5.60;5.27;;;;;;;27.52;100.00;97399.47;4816943;29;20243;-55
2022/05/20 11:18:01;;;;;;;6.00;5.50;;;;;;;27.66;100.00;97405.81;4881655;29;20309;-55
2022/05/20 11:20:57;;;;;;;7.83;6.10;;;;;;;27.64;100.00;97390.88;4855105;29;20690;-58
2022/05/20 11:23:45;;;;;;;6.20;5.03;;;;;;;27.62;100.00;97382.19;4906578;29;20678;-57
2022/05/20 11:26:46;;;;;;;7.53;6.87;;;;;;;27.74;100.00;97379.88;4907624;29;20901;-56
2022/05/20 11:29:28;;;;;;;5.67;5.27;;;;;;;27.80;100.00;97377.88;4906894;29;20295;-56
2022/05/20 11:31:59;;;;;;;5.40;5.10;;;;;;;27.87;100.00;97372.91;4906541;29;20207;-55
2022/05/20 11:34:58;;;;;;;5.33;4.87;;;;;;;28.05;100.00;97363.13;4897722;29;20233;-57
2022/05/20 11:37:45;;;;;;;5.00;4.70;;;;;;;28.09;100.00;97357.91;4864846;29;20310;-55
2022/05/20 11:40:35;;;;;;;5.73;5.23;;;;;;;28.19;100.00;97352.31;4923622;28;20233;-56
2022/05/20 11:43:37;;;;;;;5.53;5.13;;;;;;;28.27;95.41;97354.41;4961605;28;20753;-56
2022/05/20 11:46:17;;;;;;;5.60;5.10;;;;;;;28.26;97.78;97347.34;4964934;28;20228;-57
2022/05/20 11:49:02;;;;;;;8.13;4.73;;;;;;;28.16;98.34;97340.13;4966737;28;20208;-55
2022/05/20 11:51:44;;;;;;;5.00;4.60;;;;;;;28.39;94.79;97339.50;4949865;28;20218;-56
2022/05/20 11:54:14;;;;;;;6.20;5.37;;;;;;;28.33;95.27;97324.34;4922459;28;20210;-58
2022/05/20 11:56:46;;;;;;;8.47;5.20;;;;;;;28.07;93.75;97328.25;4966726;28;20768;-57
2022/05/20 11:59:20;;;;;;;5.57;5.17;;;;;;;28.10;95.71;97316.75;4967114;28;20307;-56
2022/05/20 12:01:51;;;;;;;5.07;4.77;;;;;;;28.11;91.62;97326.56;4965875;28;20264;-58
2022/05/20 12:04:21;;;;;;;5.70;5.13;;;;;;;28.31;98.81;97328.19;4964580;28;20218;-57
2022/05/20 12:06:52;;;;;;;5.67;5.17;;;;;;;28.56;97.99;97317.16;4954209;28;20820;-59
2022/05/20 12:09:36;;;;;;;5.40;4.97;;;;;;;28.59;91.17;97308.38;4925743;28;20221;-55
2022/05/20 12:12:18;;;;;;;4.80;4.50;;;;;;;28.62;93.16;97301.53;4967749;28;20294;-61
2022/05/20 12:15:43;;;;;;;5.30;4.90;;;;;;;28.71;96.02;97297.81;4963452;28;20227;-59
2022/05/20 12:24:44;;;;;;;6.43;5.03;;;;;;;28.80;87.91;97284.31;4871828;28;20233;-57
2022/05/20 12:27:35;;;;;;;8.27;4.83;;;;;;;29.00;89.67;97272.22;4917159;29;20235;-58
2022/05/20 12:30:07;;;;;;;5.20;4.67;;;;;;;28.98;84.54;97274.44;4923451;29;20215;-60